createdAt,value
2022-11-02T00:01:04.547Z,100126.00
2022-11-02T00:03:32.758Z,100127.69
2022-11-02T00:06:01.047Z,100126.81
2022-11-02T00:08:29.439Z,100129.38
2022-11-02T00:10:57.778Z,100128.53
2022-11-02T00:13:26.013Z,100131.97
2022-11-02T00:15:55.186Z,100126.84
2022-11-02T00:18:24.957Z,100123.44
2022-11-02T00:20:53.234Z,100120.00
2022-11-02T00:23:21.717Z,100117.41
2022-11-02T00:25:51.208Z,100123.38
2022-11-02T00:28:19.918Z,100119.97
2022-11-02T00:30:48.246Z,100113.13
2022-11-02T00:33:16.706Z,100119.94
2022-11-02T00:35:46.718Z,100106.31
2022-11-02T00:38:16.046Z,100112.25
2022-11-02T00:40:45.977Z,100110.56
2022-11-02T00:43:14.434Z,100117.34
2022-11-02T00:45:43.106Z,100105.41
2022-11-02T00:48:11.647Z,100106.22
2022-11-02T00:50:40.830Z,100103.66
2022-11-02T00:53:10.599Z,100098.53
2022-11-02T00:55:44.759Z,100102.78
2022-11-02T00:58:13.159Z,100105.31
2022-11-02T01:00:41.516Z,100101.06
2022-11-02T01:03:11.369Z,100089.16
2022-11-02T01:05:39.661Z,100095.97
2022-11-02T01:08:07.888Z,100087.44
2022-11-02T01:10:37.599Z,100081.50
2022-11-02T01:13:06.045Z,100085.72
2022-11-02T01:15:34.186Z,100082.28
2022-11-02T01:18:02.783Z,100084.00
2022-11-02T01:20:31.667Z,100083.16
2022-11-02T01:23:00.226Z,100087.44
2022-11-02T01:25:28.559Z,100086.53
2022-11-02T01:27:58.315Z,100094.19
2022-11-02T01:30:26.738Z,100089.09
2022-11-02T01:32:55.048Z,100090.81
2022-11-02T01:35:23.501Z,100089.94
2022-11-02T01:37:52.084Z,100094.19
2022-11-02T01:40:20.479Z,100095.88
2022-11-02T01:42:48.834Z,100091.56
2022-11-02T01:45:18.765Z,100094.06
2022-11-02T01:47:49.266Z,100089.81
2022-11-02T01:50:21.085Z,100086.38
2022-11-02T01:52:49.488Z,100099.06
2022-11-02T01:55:21.069Z,100095.63
2022-11-02T01:57:51.319Z,100106.66
2022-11-02T02:00:21.547Z,100111.69
2022-11-02T02:02:52.814Z,100107.47
2022-11-02T02:05:22.564Z,100116.00
2022-11-02T02:07:52.620Z,100113.50
2022-11-02T02:10:21.098Z,100122.84
2022-11-02T02:12:51.597Z,100118.59
2022-11-02T02:15:25.634Z,100126.22
2022-11-02T02:17:57.475Z,100126.19
2022-11-02T02:20:34.734Z,100123.63
2022-11-02T02:23:22.094Z,100124.50
2022-11-02T02:26:02.876Z,100118.47
2022-11-02T02:28:39.099Z,100123.56
2022-11-02T02:31:11.848Z,100127.72
2022-11-02T02:33:44.999Z,100130.25
2022-11-02T02:36:16.796Z,100126.88
2022-11-02T02:38:46.943Z,100127.66
2022-11-02T02:41:17.418Z,100131.88
2022-11-02T02:43:50.618Z,100134.41
2022-11-02T02:46:20.958Z,100136.94
2022-11-02T02:48:50.299Z,100142.03
2022-11-02T02:51:21.119Z,100147.09
2022-11-02T02:53:51.279Z,100136.03
2022-11-02T02:56:24.785Z,100133.50
2022-11-02T02:58:58.114Z,100130.94
2022-11-02T03:01:29.815Z,100131.72
2022-11-02T03:03:58.571Z,100129.09
2022-11-02T03:06:29.032Z,100128.19
2022-11-02T03:09:05.076Z,100133.31
2022-11-02T03:11:34.879Z,100135.03
2022-11-02T03:14:17.117Z,100139.31
2022-11-02T03:16:56.382Z,100137.63
2022-11-02T03:19:26.376Z,100146.09
2022-11-02T03:22:00.526Z,100134.22
2022-11-02T03:24:31.605Z,100134.25
2022-11-02T03:27:06.697Z,100136.00
2022-11-02T03:29:40.748Z,100142.84
2022-11-02T03:32:12.581Z,100144.53
2022-11-02T03:34:45.714Z,100149.63
2022-11-02T03:37:17.378Z,100142.03
2022-11-02T03:39:49.369Z,100147.13
2022-11-02T03:42:20.254Z,100158.09
2022-11-02T03:44:57.233Z,100170.00
2022-11-02T03:47:31.142Z,100164.94
2022-11-02T03:50:03.477Z,100162.38
2022-11-02T03:52:33.096Z,100170.00
2022-11-02T03:55:05.176Z,100175.94
2022-11-02T03:57:40.549Z,100181.88
2022-11-02T04:00:12.937Z,100180.19
2022-11-02T04:02:48.595Z,100183.56
2022-11-02T04:05:17.017Z,100178.47
2022-11-02T04:07:59.486Z,100180.09
2022-11-02T04:10:29.537Z,100182.56
2022-11-02T04:13:07.813Z,100190.16
2022-11-02T04:15:37.695Z,100192.75
2022-11-02T04:18:16.047Z,100195.34
2022-11-02T04:20:44.497Z,100196.25
2022-11-02T04:23:21.737Z,100186.09
2022-11-02T04:25:53.869Z,100192.06
2022-11-02T04:28:42.884Z,100197.97
2022-11-02T04:31:13.477Z,100193.75
2022-11-02T04:33:42.131Z,100197.22
2022-11-02T04:36:13.115Z,100192.16
2022-11-02T04:38:41.758Z,100193.00
2022-11-02T04:41:45.876Z,100190.47
2022-11-02T04:44:28.018Z,100195.63
2022-11-02T04:47:05.480Z,100199.06
2022-11-02T04:49:36.225Z,100195.63
2022-11-02T04:52:07.617Z,100196.47
2022-11-02T04:54:38.107Z,100200.72
2022-11-02T04:57:08.722Z,100193.97
2022-11-02T04:59:37.935Z,100207.56
2022-11-02T05:02:09.837Z,100202.47
2022-11-02T05:04:39.559Z,100199.06
2022-11-02T05:07:08.935Z,100199.94
2022-11-02T05:09:42.724Z,100199.06
2022-11-02T05:12:12.558Z,100199.88
2022-11-02T05:14:41.776Z,100205.03
2022-11-02T05:17:13.763Z,100199.06
2022-11-02T05:19:42.246Z,100199.09
2022-11-02T05:22:10.921Z,100212.69
2022-11-02T05:24:39.947Z,100198.25
2022-11-02T05:27:10.765Z,100207.63
2022-11-02T05:29:40.377Z,100211.03
2022-11-02T05:32:09.027Z,100211.88
2022-11-02T05:34:38.660Z,100212.75
2022-11-02T05:37:07.906Z,100217.94
2022-11-02T05:39:37.593Z,100216.16
2022-11-02T05:42:06.067Z,100218.75
2022-11-02T05:44:34.298Z,100226.41
2022-11-02T05:47:02.658Z,100217.03
2022-11-02T05:49:31.069Z,100222.97
2022-11-02T05:52:01.026Z,100233.16
2022-11-02T05:54:29.548Z,100226.44
2022-11-02T05:56:58.559Z,100224.72
2022-11-02T05:59:26.998Z,100223.84
2022-11-02T06:01:55.336Z,100234.97
2022-11-02T06:04:23.675Z,100245.19
2022-11-02T06:06:51.994Z,100250.31
2022-11-02T06:09:21.696Z,100253.75
2022-11-02T06:11:49.955Z,100258.03
2022-11-02T06:14:18.295Z,100263.19
2022-11-02T06:16:46.579Z,100267.47
2022-11-02T06:21:48.640Z,100267.53
2022-11-02T06:24:17.298Z,100267.56
2022-11-02T06:26:47.269Z,100277.81
2022-11-02T06:29:15.618Z,100281.22
2022-11-02T06:31:43.778Z,100276.16
2022-11-02T06:34:12.077Z,100277.91
2022-11-02T06:36:40.294Z,100269.41
2022-11-02T06:39:08.668Z,100279.69
2022-11-02T06:41:37.278Z,100277.16
2022-11-02T06:44:07.368Z,100277.16
2022-11-02T06:46:35.705Z,100279.75
2022-11-02T06:49:03.914Z,100279.75
2022-11-02T06:51:32.246Z,100285.75
2022-11-02T06:54:04.557Z,100286.63
2022-11-02T06:56:37.381Z,100284.06
2022-11-02T06:59:07.060Z,100286.66
2022-11-02T07:01:35.607Z,100285.78
2022-11-02T07:04:04.079Z,100292.63
2022-11-02T07:06:32.301Z,100284.97
2022-11-02T07:09:00.502Z,100288.34
2022-11-02T07:11:29.275Z,100296.00
2022-11-02T07:13:57.558Z,100293.41
2022-11-02T07:16:27.343Z,100286.59
2022-11-02T07:18:55.714Z,100288.38
2022-11-02T07:21:23.967Z,100282.56
2022-11-02T07:23:52.159Z,100273.31
2022-11-02T07:26:20.425Z,100274.25
2022-11-02T07:28:48.776Z,100283.66
2022-11-02T07:31:17.028Z,100282.06
2022-11-02T07:33:47.074Z,100283.81
2022-11-02T07:36:15.416Z,100284.72
2022-11-02T07:38:43.698Z,100280.53
2022-11-02T07:41:12.078Z,100286.50
2022-11-02T07:43:43.112Z,100278.00
2022-11-02T07:46:24.108Z,100289.09
2022-11-02T07:48:54.262Z,100284.00
2022-11-02T07:51:22.786Z,100289.13
2022-11-02T07:53:51.139Z,100287.44
2022-11-02T07:56:19.546Z,100283.16
2022-11-02T07:58:47.806Z,100283.16
2022-11-02T08:01:16.173Z,100283.13
2022-11-02T08:03:44.438Z,100279.72
2022-11-02T08:06:14.140Z,100284.88
2022-11-02T08:08:42.751Z,100289.13
2022-11-02T08:11:11.310Z,100281.41
2022-11-02T08:13:39.806Z,100283.06
2022-11-02T08:16:08.242Z,100276.19
2022-11-02T08:18:36.688Z,100285.56
2022-11-02T08:21:05.025Z,100284.66
2022-11-02T08:23:35.364Z,100288.03
2022-11-02T08:26:03.594Z,100283.72
2022-11-02T08:28:35.742Z,100271.72
2022-11-02T08:31:04.022Z,100270.84
2022-11-02T08:33:32.183Z,100267.41
2022-11-02T08:36:03.014Z,100273.34
2022-11-02T08:38:31.281Z,100268.22
2022-11-02T08:41:00.857Z,100267.28
2022-11-02T08:43:29.264Z,100267.22
2022-11-02T08:46:16.396Z,100273.97
2022-11-02T08:48:46.185Z,100262.78
2022-11-02T08:51:14.333Z,100271.22
2022-11-02T08:53:47.057Z,100265.16
2022-11-02T08:56:18.602Z,100261.63
2022-11-02T08:58:46.823Z,100259.00
2022-11-02T09:01:15.370Z,100256.34
2022-11-02T09:03:43.593Z,100265.75
2022-11-02T09:06:12.244Z,100262.22
2022-11-02T09:08:40.453Z,100258.63
2022-11-02T09:11:09.376Z,100262.22
2022-11-02T09:13:39.202Z,100265.59
2022-11-02T09:16:07.834Z,100259.59
2022-11-02T09:18:36.116Z,100262.78
2022-11-02T09:21:04.894Z,100261.75
2022-11-02T09:23:33.474Z,100261.66
2022-11-02T09:26:01.794Z,100261.59
2022-11-02T09:28:30.093Z,100259.75
2022-11-02T09:30:59.831Z,100260.38
2022-11-02T09:33:30.754Z,100260.91
2022-11-02T09:36:02.976Z,100259.09
2022-11-02T09:38:31.302Z,100258.13
2022-11-02T09:41:03.535Z,100260.66
2022-11-02T09:43:40.992Z,100258.91
2022-11-02T09:46:13.452Z,100264.81
2022-11-02T09:48:43.960Z,100259.66
2022-11-02T09:51:13.917Z,100258.63
2022-11-02T09:53:48.093Z,100259.28
2022-11-02T09:56:19.928Z,100259.81
2022-11-02T09:58:51.033Z,100259.69
2022-11-02T10:01:26.275Z,100251.91
2022-11-02T10:04:08.392Z,100254.13
2022-11-02T10:06:38.933Z,100252.22
2022-11-02T10:09:10.273Z,100246.94
2022-11-02T10:11:44.492Z,100244.06
2022-11-02T10:14:16.395Z,100243.25
2022-11-02T10:16:50.847Z,100234.81
2022-11-02T10:19:22.291Z,100234.75
2022-11-02T10:21:54.463Z,100231.47
2022-11-02T10:24:25.595Z,100227.06
2022-11-02T10:26:57.473Z,100220.78
2022-11-02T10:29:31.922Z,100222.91
2022-11-02T10:32:02.786Z,100215.41
2022-11-02T10:34:31.755Z,100226.34
2022-11-02T10:37:07.538Z,100217.66
2022-11-02T10:39:40.276Z,100214.50
2022-11-02T10:42:17.252Z,100210.13
2022-11-02T10:44:56.613Z,100208.78
2022-11-02T10:47:28.762Z,100208.38
2022-11-02T10:50:11.872Z,100202.91
2022-11-02T10:52:43.360Z,100198.94
2022-11-02T10:55:18.626Z,100189.88
2022-11-02T10:57:47.076Z,100192.22
2022-11-02T11:00:26.335Z,100188.03
2022-11-02T11:03:05.856Z,100185.16
2022-11-02T11:05:37.422Z,100180.06
2022-11-02T11:08:06.799Z,100181.13
2022-11-02T11:10:38.188Z,100185.56
2022-11-02T11:15:57.066Z,100185.44
2022-11-02T11:21:15.119Z,100188.81
2022-11-02T11:23:43.410Z,100184.81
2022-11-02T11:26:27.486Z,100184.44
2022-11-02T11:28:56.926Z,100184.34
2022-11-02T11:31:25.598Z,100181.63
2022-11-02T11:33:55.330Z,100182.00
2022-11-02T11:39:01.445Z,100181.41
2022-11-02T11:41:30.358Z,100170.28
2022-11-02T11:43:59.192Z,100175.75
2022-11-02T11:46:41.548Z,100174.31
2022-11-02T11:49:18.757Z,100158.66
2022-11-02T11:51:50.614Z,100167.63
2022-11-02T11:54:20.666Z,100162.22
2022-11-02T11:56:49.454Z,100162.38
2022-11-02T11:59:22.488Z,100170.59
2022-11-02T12:01:52.725Z,100159.00
2022-11-02T12:04:31.498Z,100155.13
2022-11-02T12:07:09.498Z,100154.53
2022-11-02T12:09:42.878Z,100153.06
2022-11-02T12:12:17.386Z,100154.06
2022-11-02T12:14:50.398Z,100163.34
2022-11-02T12:17:29.466Z,100160.38
2022-11-02T12:20:07.806Z,100159.94
2022-11-02T12:22:42.623Z,100155.81
2022-11-02T12:25:28.793Z,100151.66
2022-11-02T12:28:03.250Z,100155.66
2022-11-02T12:30:38.049Z,100147.44
2022-11-02T12:33:09.417Z,100143.63
2022-11-02T12:35:51.027Z,100150.94
2022-11-02T12:38:30.076Z,100153.78
2022-11-02T12:41:05.253Z,100152.00
2022-11-02T12:43:39.508Z,100154.72
2022-11-02T12:46:11.992Z,100152.84
2022-11-02T12:48:43.851Z,100148.84
2022-11-02T12:51:14.379Z,100156.81
2022-11-02T12:53:45.848Z,100156.56
2022-11-02T12:56:20.998Z,100158.06
2022-11-02T12:58:49.678Z,100161.63
2022-11-02T13:01:22.437Z,100160.06
2022-11-02T13:03:53.373Z,100165.69
2022-11-02T13:06:25.802Z,100163.53
2022-11-02T13:08:56.590Z,100164.53
2022-11-02T13:11:30.204Z,100164.25
2022-11-02T13:14:00.031Z,100162.09
2022-11-02T13:16:34.939Z,100164.03
2022-11-02T13:19:04.099Z,100164.34
2022-11-02T13:21:38.567Z,100164.59
2022-11-02T13:24:14.757Z,100162.00
2022-11-02T13:26:47.462Z,100163.75
2022-11-02T13:29:19.192Z,100164.72
2022-11-02T13:31:49.227Z,100159.53
2022-11-02T13:34:19.789Z,100155.31
2022-11-02T13:36:48.233Z,100151.19
2022-11-02T13:39:19.040Z,100153.66
2022-11-02T13:41:58.032Z,100158.63
2022-11-02T13:44:38.102Z,100158.94
2022-11-02T13:47:18.482Z,100160.41
2022-11-02T13:49:50.931Z,100150.53
2022-11-02T13:52:22.499Z,100156.84
2022-11-02T13:54:52.759Z,100142.38
2022-11-02T13:57:25.681Z,100157.22
2022-11-02T13:59:55.364Z,100158.44
2022-11-02T14:02:24.489Z,100158.72
2022-11-02T14:04:52.872Z,100160.56
2022-11-02T14:07:24.760Z,100159.09
2022-11-02T14:09:57.744Z,100161.91
2022-11-02T14:12:28.477Z,100166.44
2022-11-02T14:15:07.419Z,100157.19
2022-11-02T14:20:37.811Z,100160.16
2022-11-02T14:23:21.104Z,100153.44
2022-11-02T14:25:50.312Z,100150.16
2022-11-02T14:28:30.329Z,100154.69
2022-11-02T14:31:02.258Z,100155.72
2022-11-02T14:33:39.005Z,100150.75
2022-11-02T14:36:11.585Z,100156.06
2022-11-02T14:38:57.718Z,100161.38
2022-11-02T14:41:37.103Z,100155.59
2022-11-02T14:44:15.801Z,100154.06
2022-11-02T14:46:56.916Z,100159.38
2022-11-02T14:49:27.321Z,100158.63
2022-11-02T14:52:03.928Z,100160.53
2022-11-02T14:54:34.540Z,100161.69
2022-11-02T14:57:05.899Z,100160.97
2022-11-02T14:59:37.012Z,100168.75
2022-11-02T15:02:07.443Z,100166.34
2022-11-02T15:04:36.502Z,100173.44
2022-11-02T15:07:07.462Z,100178.00
2022-11-02T15:09:46.539Z,100175.63
2022-11-02T15:12:25.800Z,100192.94
2022-11-02T15:14:56.350Z,100189.66
2022-11-02T15:17:35.602Z,100189.84
2022-11-02T15:20:18.819Z,100190.00
2022-11-02T15:22:49.782Z,100190.09
2022-11-02T15:25:21.491Z,100195.38
2022-11-02T15:27:53.058Z,100198.84
2022-11-02T15:30:26.983Z,100200.56
2022-11-02T15:33:01.993Z,100207.41
2022-11-02T15:35:32.842Z,100212.59
2022-11-02T15:38:17.037Z,100212.59
2022-11-02T15:40:49.324Z,100216.94
2022-11-02T15:43:30.041Z,100217.84
2022-11-02T15:46:05.124Z,100223.00
2022-11-02T15:48:43.250Z,100223.03
2022-11-02T15:51:17.601Z,100224.75
2022-11-02T15:54:03.630Z,100232.50
2022-11-02T15:56:41.812Z,100233.41
2022-11-02T15:59:22.378Z,100230.00
2022-11-02T16:02:04.141Z,100228.34
2022-11-02T16:04:32.745Z,100236.97
2022-11-02T16:07:06.052Z,100234.50
2022-11-02T16:09:36.863Z,100243.97
2022-11-02T16:12:12.303Z,100252.59
2022-11-02T16:14:42.253Z,100252.59
2022-11-02T16:17:20.321Z,100253.47
2022-11-02T16:19:49.609Z,100252.72
2022-11-02T16:22:24.379Z,100255.34
2022-11-02T16:24:53.716Z,100252.81
2022-11-02T16:27:22.551Z,100254.56
2022-11-02T16:29:52.319Z,100250.34
2022-11-02T16:32:20.480Z,100250.38
2022-11-02T16:34:48.880Z,100247.88
2022-11-02T16:37:19.550Z,100259.84
2022-11-02T16:39:48.992Z,100257.34
2022-11-02T16:42:19.299Z,100265.06
2022-11-02T16:44:58.531Z,100263.34
2022-11-02T16:47:36.339Z,100269.34
2022-11-02T16:50:05.979Z,100270.22
2022-11-02T16:52:35.187Z,100266.78
2022-11-02T16:55:03.871Z,100274.47
2022-11-02T16:57:33.271Z,100277.94
2022-11-02T17:00:02.929Z,100283.06
2022-11-02T17:02:36.324Z,100289.06
2022-11-02T17:05:06.853Z,100283.94
2022-11-02T17:07:37.294Z,100285.66
2022-11-02T17:10:07.238Z,100289.91
2022-11-02T17:12:36.559Z,100291.63
2022-11-02T17:15:06.132Z,100283.91
2022-11-02T17:17:40.662Z,100288.19
2022-11-02T17:20:17.519Z,100289.06
2022-11-02T17:22:53.577Z,100295.09
2022-11-02T17:25:23.523Z,100294.22
2022-11-02T17:27:52.289Z,100302.78
2022-11-02T17:30:41.503Z,100301.94
2022-11-02T17:33:12.045Z,100306.22
2022-11-02T17:35:45.957Z,100319.88
2022-11-02T17:38:14.478Z,100306.22
2022-11-02T17:40:42.960Z,100316.44
2022-11-02T17:43:10.278Z,100315.59
2022-11-02T17:45:39.392Z,100313.91
2022-11-02T17:48:10.065Z,100316.44
2022-11-02T17:50:41.021Z,100325.00
2022-11-02T17:53:12.515Z,100328.47
2022-11-02T17:55:41.374Z,100328.44
2022-11-02T17:58:09.883Z,100335.22
2022-11-02T18:00:38.432Z,100325.84
2022-11-02T18:03:11.485Z,100325.84
2022-11-02T18:05:43.708Z,100332.66
2022-11-02T18:08:16.251Z,100319.00
2022-11-02T18:10:46.701Z,100318.13
2022-11-02T18:13:15.952Z,100317.28
2022-11-02T18:15:44.489Z,100314.72
2022-11-02T18:18:13.090Z,100315.56
2022-11-02T18:20:43.049Z,100316.38
2022-11-02T18:23:15.361Z,100307.84
2022-11-02T18:25:43.617Z,100297.59
2022-11-02T18:28:11.899Z,100295.03
2022-11-02T18:30:43.379Z,100289.91
2022-11-02T18:33:13.887Z,100301.84
2022-11-02T18:35:44.558Z,100299.28
2022-11-02T18:38:13.439Z,100293.31
2022-11-02T18:40:41.722Z,100297.53
2022-11-02T18:43:10.222Z,100301.78
2022-11-02T18:45:38.633Z,100300.06
2022-11-02T18:48:07.404Z,100295.81
2022-11-02T18:50:36.313Z,100290.69
2022-11-02T18:53:06.342Z,100297.50
2022-11-02T18:55:34.588Z,100290.66
2022-11-02T18:58:03.345Z,100288.97
2022-11-02T19:00:31.859Z,100292.38
2022-11-02T19:03:00.243Z,100300.84
2022-11-02T19:05:38.360Z,100293.16
2022-11-02T19:08:19.561Z,100303.38
2022-11-02T19:10:48.731Z,100304.22
2022-11-02T19:13:17.052Z,100311.81
2022-11-02T19:15:45.443Z,100310.09
2022-11-02T19:18:13.700Z,100307.53
2022-11-02T19:20:42.032Z,100310.94
2022-11-02T19:23:11.800Z,100306.69
2022-11-02T19:25:40.198Z,100302.38
2022-11-02T19:28:08.772Z,100302.38
2022-11-02T19:30:38.921Z,100304.94
2022-11-02T19:33:07.714Z,100305.75
2022-11-02T19:35:36.491Z,100303.97
2022-11-02T19:38:04.838Z,100297.16
2022-11-02T19:40:35.400Z,100309.94
2022-11-02T19:43:04.087Z,100314.22
2022-11-02T19:45:32.838Z,100314.16
2022-11-02T19:48:03.436Z,100327.72
2022-11-02T19:50:32.010Z,100329.41
2022-11-02T19:53:01.218Z,100326.75
2022-11-02T19:55:29.891Z,100337.78
2022-11-02T19:57:59.472Z,100336.06
2022-11-02T20:00:27.691Z,100324.09
2022-11-02T20:02:56.477Z,100332.66
2022-11-02T20:05:24.971Z,100342.00
2022-11-02T20:07:53.210Z,100336.00
2022-11-02T20:10:23.731Z,100339.38
2022-11-02T20:12:51.930Z,100342.81
2022-11-02T20:15:21.584Z,100341.03
2022-11-02T20:18:13.316Z,100343.56
2022-11-02T20:20:38.221Z,100341.00
2022-11-02T20:23:06.363Z,100339.31
2022-11-02T20:25:34.630Z,100343.50
2022-11-02T20:28:03.601Z,100346.03
2022-11-02T20:30:33.657Z,100344.31
2022-11-02T20:33:01.960Z,100341.81
2022-11-02T20:35:30.450Z,100341.84
2022-11-02T20:37:59.051Z,100344.34
2022-11-02T20:40:28.671Z,100349.44
2022-11-02T20:42:58.850Z,100346.88
2022-11-02T20:45:28.786Z,100354.56
2022-11-02T20:48:02.795Z,100351.09
2022-11-02T20:50:31.241Z,100345.91
2022-11-02T20:52:59.446Z,100349.28
2022-11-02T20:55:28.854Z,100356.97
2022-11-02T20:57:57.771Z,100353.53
2022-11-02T21:00:26.873Z,100350.88
2022-11-02T21:02:55.078Z,100353.47
2022-11-02T21:05:24.684Z,100353.44
2022-11-02T21:07:53.824Z,100349.09
2022-11-02T21:10:22.053Z,100349.91
2022-11-02T21:13:00.173Z,100358.41
2022-11-02T21:15:29.369Z,100360.03
2022-11-02T21:17:57.582Z,100359.13
2022-11-02T21:20:34.271Z,100356.56
2022-11-02T21:23:03.786Z,100360.75
2022-11-02T21:25:33.286Z,100364.19
2022-11-02T21:28:01.922Z,100363.31
2022-11-02T21:30:32.204Z,100360.00
2022-11-02T21:33:01.398Z,100354.03
2022-11-02T21:35:30.934Z,100359.00
2022-11-02T21:38:01.339Z,100361.63
2022-11-02T21:40:32.314Z,100355.56
2022-11-02T21:43:00.906Z,100345.34
2022-11-02T21:45:32.238Z,100350.44
2022-11-02T21:48:05.516Z,100357.22
2022-11-02T21:50:35.086Z,100353.63
2022-11-02T21:53:03.571Z,100355.28
2022-11-02T21:55:32.087Z,100346.69
2022-11-02T21:58:00.444Z,100350.09
2022-11-02T22:00:48.978Z,100348.34
2022-11-02T22:03:16.318Z,100350.88
2022-11-02T22:05:59.064Z,100348.25
2022-11-02T22:08:37.463Z,100355.91
2022-11-02T22:11:05.827Z,100343.06
2022-11-02T22:13:34.106Z,100344.69
2022-11-02T22:16:10.037Z,100347.28
2022-11-02T22:18:38.286Z,100349.13
2022-11-02T22:21:08.336Z,100348.16
2022-11-02T22:23:36.729Z,100344.75
2022-11-02T22:26:07.073Z,100350.59
2022-11-02T22:28:37.826Z,100346.25
2022-11-02T22:31:06.623Z,100349.50
2022-11-02T22:33:34.903Z,100349.50
2022-11-02T22:36:04.827Z,100347.75
2022-11-02T22:38:44.537Z,100348.59
2022-11-02T22:41:12.972Z,100354.59
2022-11-02T22:43:41.225Z,100359.69
2022-11-02T22:46:10.063Z,100357.81
2022-11-02T22:48:38.412Z,100353.50
2022-11-02T22:51:07.694Z,100359.53
2022-11-02T22:53:37.405Z,100366.41
2022-11-02T22:56:09.034Z,100367.25
2022-11-02T22:58:38.165Z,100371.47
2022-11-02T23:01:06.952Z,100375.63
2022-11-02T23:03:35.857Z,100376.38
2022-11-02T23:06:06.600Z,100364.38
2022-11-02T23:08:36.548Z,100365.84
2022-11-02T23:11:17.335Z,100369.06
2022-11-02T23:13:46.756Z,100374.06
2022-11-02T23:16:26.222Z,100363.09
2022-11-02T23:19:07.087Z,100360.63
2022-11-02T23:21:35.615Z,100371.63
2022-11-02T23:37:43.633Z,100386.56
2022-11-02T23:40:31.237Z,100391.38
2022-11-02T23:43:00.984Z,100395.53
2022-11-02T23:45:29.325Z,100392.09
2022-11-02T23:48:01.479Z,100389.41
2022-11-02T23:50:41.857Z,100383.41
2022-11-02T23:53:22.075Z,100395.50
2022-11-02T23:56:00.380Z,100408.22
2022-11-02T23:58:30.050Z,100408.84
